sensor_id;sensor_type;location;lat;lon;timestamp;pressure;altitude;pressure_sealevel;temperature;humidity
43878;BME280;29815;48.184;11.268;2023-05-19T00:00:30;95996.91;;;9.02;100.00
43878;BME280;29815;48.184;11.268;2023-05-19T00:03:02;96001.44;;;9.02;100.00
43878;BME280;29815;48.184;11.268;2023-05-19T00:05:32;95992.00;;;8.99;100.00
43878;BME280;29815;48.184;11.268;2023-05-19T00:08:04;95994.94;;;8.98;100.00
43878;BME280;29815;48.184;11.268;2023-05-19T00:10:35;95994.94;;;8.98;100.00
43878;BME280;29815;48.184;11.268;2023-05-19T00:13:07;95986.34;;;8.96;100.00
43878;BME280;29815;48.184;11.268;2023-05-19T00:15:37;95985.75;;;8.94;100.00
43878;BME280;29815;48.184;11.268;2023-05-19T00:18:08;95986.56;;;8.94;100.00
43878;BME280;29815;48.184;11.268;2023-05-19T00:20:41;95985.44;;;8.90;100.00
43878;BME280;29815;48.184;11.268;2023-05-19T00:23:11;95989.50;;;8.93;100.00
43878;BME280;29815;48.184;11.268;2023-05-19T00:25:40;95991.13;;;8.94;100.00
43878;BME280;29815;48.184;11.268;2023-05-19T00:28:11;95988.94;;;8.91;100.00
43878;BME280;29815;48.184;11.268;2023-05-19T00:30:41;95989.50;;;8.93;100.00
43878;BME280;29815;48.184;11.268;2023-05-19T00:33:11;95985.44;;;8.90;100.00
43878;BME280;29815;48.184;11.268;2023-05-19T00:35:41;95983.25;;;8.87;100.00
43878;BME280;29815;48.184;11.268;2023-05-19T00:38:10;95977.88;;;8.87;100.00
43878;BME280;29815;48.184;11.268;2023-05-19T00:40:40;95978.13;;;8.86;100.00
43878;BME280;29815;48.184;11.268;2023-05-19T00:43:11;95981.06;;;8.84;100.00
43878;BME280;29815;48.184;11.268;2023-05-19T00:45:41;95977.00;;;8.81;100.00
43878;BME280;29815;48.184;11.268;2023-05-19T00:48:10;95981.56;;;8.81;100.00
43878;BME280;29815;48.184;11.268;2023-05-19T00:50:40;95978.06;;;8.80;100.00
43878;BME280;29815;48.184;11.268;2023-05-19T00:53:10;95965.69;;;8.79;100.00
43878;BME280;29815;48.184;11.268;2023-05-19T00:55:41;95963.25;;;8.78;100.00
43878;BME280;29815;48.184;11.268;2023-05-19T00:58:13;95962.69;;;8.76;100.00
43878;BME280;29815;48.184;11.268;2023-05-19T01:00:44;95967.25;;;8.75;100.00
43878;BME280;29815;48.184;11.268;2023-05-19T01:03:17;95954.66;;;8.76;100.00
43878;BME280;29815;48.184;11.268;2023-05-19T01:05:48;95961.09;;;8.75;100.00
43878;BME280;29815;48.184;11.268;2023-05-19T01:08:21;95956.78;;;8.74;100.00
43878;BME280;29815;48.184;11.268;2023-05-19T01:10:50;95955.16;;;8.73;100.00
43878;BME280;29815;48.184;11.268;2023-05-19T01:13:21;95954.59;;;8.71;100.00
43878;BME280;29815;48.184;11.268;2023-05-19T01:16:00;95960.47;;;8.68;100.00
43878;BME280;29815;48.184;11.268;2023-05-19T01:18:43;95962.34;;;8.67;100.00
43878;BME280;29815;48.184;11.268;2023-05-19T01:21:39;95967.13;;;8.65;100.00
43878;BME280;29815;48.184;11.268;2023-05-19T01:25:26;95965.75;;;8.63;100.00
43878;BME280;29815;48.184;11.268;2023-05-19T01:28:28;95966.56;;;8.63;100.00
43878;BME280;29815;48.184;11.268;2023-05-19T01:31:08;95964.38;;;8.60;100.00
43878;BME280;29815;48.184;11.268;2023-05-19T01:33:43;95962.75;;;8.59;100.00
43878;BME280;29815;48.184;11.268;2023-05-19T01:36:15;95969.41;;;8.57;100.00
43878;BME280;29815;48.184;11.268;2023-05-19T01:38:46;95966.97;;;8.55;100.00
43878;BME280;29815;48.184;11.268;2023-05-19T01:41:19;95969.09;;;8.53;100.00
43878;BME280;29815;48.184;11.268;2023-05-19T01:43:52;95966.41;;;8.53;100.00
43878;BME280;29815;48.184;11.268;2023-05-19T01:46:23;95966.66;;;8.52;100.00
43878;BME280;29815;48.184;11.268;2023-05-19T01:48:54;95963.41;;;8.49;100.00
43878;BME280;29815;48.184;11.268;2023-05-19T01:51:24;95974.13;;;8.49;100.00
43878;BME280;29815;48.184;11.268;2023-05-19T01:53:53;95972.78;;;8.47;100.00
43878;BME280;29815;48.184;11.268;2023-05-19T01:56:31;95973.84;;;8.46;100.00
43878;BME280;29815;48.184;11.268;2023-05-19T01:59:20;95974.09;;;8.44;100.00
43878;BME280;29815;48.184;11.268;2023-05-19T02:02:18;95968.16;;;8.42;100.00
43878;BME280;29815;48.184;11.268;2023-05-19T02:05:00;95968.16;;;8.42;100.00
43878;BME280;29815;48.184;11.268;2023-05-19T02:07:40;95963.28;;;8.39;100.00
43878;BME280;29815;48.184;11.268;2023-05-19T02:10:18;95964.25;;;8.33;100.00
43878;BME280;29815;48.184;11.268;2023-05-19T02:12:53;95958.06;;;8.33;100.00
43878;BME280;29815;48.184;11.268;2023-05-19T02:15:27;95964.47;;;8.32;100.00
43878;BME280;29815;48.184;11.268;2023-05-19T02:18:02;95958.53;;;8.30;100.00
43878;BME280;29815;48.184;11.268;2023-05-19T02:20:32;95957.72;;;8.29;100.00
43878;BME280;29815;48.184;11.268;2023-05-19T02:23:02;95963.09;;;8.29;100.00
43878;BME280;29815;48.184;11.268;2023-05-19T02:25:32;95949.91;;;8.28;100.00
43878;BME280;29815;48.184;11.268;2023-05-19T02:28:02;95960.63;;;8.28;100.00
43878;BME280;29815;48.184;11.268;2023-05-19T02:30:31;95957.97;;;8.28;100.00
43878;BME280;29815;48.184;11.268;2023-05-19T02:33:03;95953.66;;;8.27;100.00
43878;BME280;29815;48.184;11.268;2023-05-19T02:35:33;95959.81;;;8.27;100.00
43878;BME280;29815;48.184;11.268;2023-05-19T02:38:07;95954.72;;;8.26;100.00
43878;BME280;29815;48.184;11.268;2023-05-19T02:40:37;95955.75;;;8.25;100.00
43878;BME280;29815;48.184;11.268;2023-05-19T02:43:07;95945.28;;;8.23;100.00
43878;BME280;29815;48.184;11.268;2023-05-19T02:45:37;95945.28;;;8.23;100.00
43878;BME280;29815;48.184;11.268;2023-05-19T02:48:08;95947.16;;;8.23;100.00
43878;BME280;29815;48.184;11.268;2023-05-19T02:50:38;95942.59;;;8.23;100.00
43878;BME280;29815;48.184;11.268;2023-05-19T02:53:07;95939.09;;;8.23;100.00
43878;BME280;29815;48.184;11.268;2023-05-19T02:55:37;95942.59;;;8.23;100.00
43878;BME280;29815;48.184;11.268;2023-05-19T02:58:06;95939.34;;;8.21;100.00
43878;BME280;29815;48.184;11.268;2023-05-19T03:00:36;95944.72;;;8.21;100.00
43878;BME280;29815;48.184;11.268;2023-05-19T03:03:06;95933.44;;;8.19;100.00
43878;BME280;29815;48.184;11.268;2023-05-19T03:05:37;95936.94;;;8.20;100.00
43878;BME280;29815;48.184;11.268;2023-05-19T03:08:07;95938.81;;;8.19;100.00
43878;BME280;29815;48.184;11.268;2023-05-19T03:10:36;95936.38;;;8.18;100.00
43878;BME280;29815;48.184;11.268;2023-05-19T03:13:06;95934.50;;;8.18;100.00
43878;BME280;29815;48.184;11.268;2023-05-19T03:15:35;95929.38;;;8.17;100.00
43878;BME280;29815;48.184;11.268;2023-05-19T03:18:05;95925.09;;;8.15;100.00
43878;BME280;29815;48.184;11.268;2023-05-19T03:20:36;95922.16;;;8.17;100.00
43878;BME280;29815;48.184;11.268;2023-05-19T03:23:08;95929.38;;;8.17;100.00
43878;BME280;29815;48.184;11.268;2023-05-19T03:25:38;95920.78;;;8.14;100.00
43878;BME280;29815;48.184;11.268;2023-05-19T03:28:07;95920.78;;;8.14;100.00
43878;BME280;29815;48.184;11.268;2023-05-19T03:30:37;95918.09;;;8.14;100.00
43878;BME280;29815;48.184;11.268;2023-05-19T03:33:14;95926.38;;;8.13;100.00
43878;BME280;29815;48.184;11.268;2023-05-19T03:35:46;95918.59;;;8.11;100.00
43878;BME280;29815;48.184;11.268;2023-05-19T03:38:16;95922.88;;;8.12;100.00
43878;BME280;29815;48.184;11.268;2023-05-19T03:40:52;95915.09;;;8.11;100.00
43878;BME280;29815;48.184;11.268;2023-05-19T03:43:22;95910.78;;;8.10;100.00
43878;BME280;29815;48.184;11.268;2023-05-19T03:45:57;95919.63;;;8.10;100.00
43878;BME280;29815;48.184;11.268;2023-05-19T03:48:49;95911.34;;;8.12;100.00
43878;BME280;29815;48.184;11.268;2023-05-19T03:51:23;95917.78;;;8.11;100.00
43878;BME280;29815;48.184;11.268;2023-05-19T03:53:58;95919.41;;;8.12;100.00
43878;BME280;29815;48.184;11.268;2023-05-19T03:56:28;95915.09;;;8.11;100.00
43878;BME280;29815;48.184;11.268;2023-05-19T03:58:57;95916.72;;;8.12;100.00
43878;BME280;29815;48.184;11.268;2023-05-19T04:01:27;95914.84;;;8.12;100.00
43878;BME280;29815;48.184;11.268;2023-05-19T04:03:58;95920.22;;;8.12;100.00
43878;BME280;29815;48.184;11.268;2023-05-19T04:06:29;95917.53;;;8.12;100.00
43878;BME280;29815;48.184;11.268;2023-05-19T04:09:01;95912.72;;;8.14;100.00
43878;BME280;29815;48.184;11.268;2023-05-19T04:11:32;95918.09;;;8.14;100.00
43878;BME280;29815;48.184;11.268;2023-05-19T04:14:01;95923.69;;;8.13;100.00
43878;BME280;29815;48.184;11.268;2023-05-19T04:16:31;95919.72;;;8.15;100.00
43878;BME280;29815;48.184;11.268;2023-05-19T04:19:01;95922.16;;;8.17;100.00
43878;BME280;29815;48.184;11.268;2023-05-19T04:21:32;95924.03;;;8.17;100.00
43878;BME280;29815;48.184;11.268;2023-05-19T04:24:01;95922.72;;;8.19;100.00
43878;BME280;29815;48.184;11.268;2023-05-19T04:26:33;95927.03;;;8.20;100.00
43878;BME280;29815;48.184;11.268;2023-05-19T04:29:05;95923.03;;;8.23;100.00
43878;BME280;29815;48.184;11.268;2023-05-19T04:31:35;95920.91;;;8.25;100.00
43878;BME280;29815;48.184;11.268;2023-05-19T04:34:06;95927.41;;;8.29;100.00
43878;BME280;29815;48.184;11.268;2023-05-19T04:36:38;95918.31;;;8.30;100.00
43878;BME280;29815;48.184;11.268;2023-05-19T04:39:08;95913.50;;;8.32;100.00
43878;BME280;29815;48.184;11.268;2023-05-19T04:41:42;95925.06;;;8.32;100.00
43878;BME280;29815;48.184;11.268;2023-05-19T04:44:13;95921.34;;;8.33;100.00
43878;BME280;29815;48.184;11.268;2023-05-19T04:46:47;95926.22;;;8.36;100.00
43878;BME280;29815;48.184;11.268;2023-05-19T04:49:22;95916.06;;;8.38;100.00
43878;BME280;29815;48.184;11.268;2023-05-19T04:51:53;95920.13;;;8.41;100.00
43878;BME280;29815;48.184;11.268;2023-05-19T04:54:27;95927.69;;;8.44;100.00
43878;BME280;29815;48.184;11.268;2023-05-19T04:56:58;95922.63;;;8.47;100.00
43878;BME280;29815;48.184;11.268;2023-05-19T04:59:30;95922.34;;;8.49;100.00
43878;BME280;29815;48.184;11.268;2023-05-19T05:02:00;95918.38;;;8.52;100.00
43878;BME280;29815;48.184;11.268;2023-05-19T05:04:31;95916.81;;;8.56;100.00
43878;BME280;29815;48.184;11.268;2023-05-19T05:07:02;95912.59;;;8.60;100.00
43878;BME280;29815;48.184;11.268;2023-05-19T05:09:33;95907.53;;;8.63;100.00
43878;BME280;29815;48.184;11.268;2023-05-19T05:12:04;95910.53;;;8.67;100.00
43878;BME280;29815;48.184;11.268;2023-05-19T05:14:37;95911.41;;;8.72;100.00
43878;BME280;29815;48.184;11.268;2023-05-19T05:17:10;95903.66;;;8.76;100.00
43878;BME280;29815;48.184;11.268;2023-05-19T05:19:43;95908.59;;;8.84;100.00
43878;BME280;29815;48.184;11.268;2023-05-19T05:22:15;95903.28;;;8.89;100.00
43878;BME280;29815;48.184;11.268;2023-05-19T05:24:47;95903.91;;;8.96;100.00
43878;BME280;29815;48.184;11.268;2023-05-19T05:27:17;95902.13;;;9.02;100.00
43878;BME280;29815;48.184;11.268;2023-05-19T05:29:47;95904.28;;;9.05;100.00
43878;BME280;29815;48.184;11.268;2023-05-19T05:32:20;95907.00;;;9.10;100.00
43878;BME280;29815;48.184;11.268;2023-05-19T05:34:50;95903.53;;;9.09;100.00
43878;BME280;29815;48.184;11.268;2023-05-19T05:37:21;95907.84;;;9.10;100.00
43878;BME280;29815;48.184;11.268;2023-05-19T05:39:51;95910.56;;;9.15;100.00
43878;BME280;29815;48.184;11.268;2023-05-19T05:42:20;95909.81;;;9.20;100.00
43878;BME280;29815;48.184;11.268;2023-05-19T05:44:50;95913.63;;;9.24;100.00
43878;BME280;29815;48.184;11.268;2023-05-19T05:47:21;95919.34;;;9.33;100.00
43878;BME280;29815;48.184;11.268;2023-05-19T05:49:51;95914.84;;;9.38;100.00
43878;BME280;29815;48.184;11.268;2023-05-19T05:52:29;95911.16;;;9.44;100.00
43878;BME280;29815;48.184;11.268;2023-05-19T05:55:01;95916.84;;;9.48;100.00
43878;BME280;29815;48.184;11.268;2023-05-19T05:57:31;95909.63;;;9.54;100.00
43878;BME280;29815;48.184;11.268;2023-05-19T06:00:03;95911.53;;;9.58;100.00
43878;BME280;29815;48.184;11.268;2023-05-19T06:02:44;95909.72;;;9.64;100.00
43878;BME280;29815;48.184;11.268;2023-05-19T06:05:16;95912.75;;;9.72;100.00
43878;BME280;29815;48.184;11.268;2023-05-19T06:07:48;95906.13;;;9.80;100.00
43878;BME280;29815;48.184;11.268;2023-05-19T06:10:22;95913.44;;;9.90;100.00
43878;BME280;29815;48.184;11.268;2023-05-19T06:12:54;95910.56;;;10.01;100.00
43878;BME280;29815;48.184;11.268;2023-05-19T06:15:24;95904.72;;;10.09;100.00
43878;BME280;29815;48.184;11.268;2023-05-19T06:18:03;95911.22;;;10.18;100.00
43878;BME280;29815;48.184;11.268;2023-05-19T06:20:33;95895.75;;;10.31;100.00
43878;BME280;29815;48.184;11.268;2023-05-19T06:23:04;95900.66;;;10.39;100.00
43878;BME280;29815;48.184;11.268;2023-05-19T06:25:35;95903.66;;;10.47;100.00
43878;BME280;29815;48.184;11.268;2023-05-19T06:28:05;95901.25;;;10.51;100.00
43878;BME280;29815;48.184;11.268;2023-05-19T06:30:35;95898.06;;;10.59;100.00
43878;BME280;29815;48.184;11.268;2023-05-19T06:33:17;95891.09;;;10.68;100.00
43878;BME280;29815;48.184;11.268;2023-05-19T06:35:47;95883.91;;;10.79;100.00
43878;BME280;29815;48.184;11.268;2023-05-19T06:38:18;95890.38;;;10.83;100.00
43878;BME280;29815;48.184;11.268;2023-05-19T06:40:48;95899.31;;;10.94;100.00
43878;BME280;29815;48.184;11.268;2023-05-19T06:43:17;95895.56;;;11.05;100.00
43878;BME280;29815;48.184;11.268;2023-05-19T06:45:55;95893.47;;;11.17;100.00
43878;BME280;29815;48.184;11.268;2023-05-19T06:48:26;95905.38;;;11.36;100.00
43878;BME280;29815;48.184;11.268;2023-05-19T06:50:55;95895.69;;;11.50;100.00
43878;BME280;29815;48.184;11.268;2023-05-19T06:53:27;95904.09;;;11.69;100.00
43878;BME280;29815;48.184;11.268;2023-05-19T06:55:57;95901.97;;;11.81;100.00
43878;BME280;29815;48.184;11.268;2023-05-19T06:58:32;95905.47;;;11.92;100.00
43878;BME280;29815;48.184;11.268;2023-05-19T07:01:05;95906.81;;;12.05;100.00
43878;BME280;29815;48.184;11.268;2023-05-19T07:03:41;95903.31;;;12.19;100.00
43878;BME280;29815;48.184;11.268;2023-05-19T07:06:12;95905.22;;;12.29;100.00
43878;BME280;29815;48.184;11.268;2023-05-19T07:08:43;95899.25;;;12.37;100.00
43878;BME280;29815;48.184;11.268;2023-05-19T07:11:13;95900.59;;;12.50;100.00
43878;BME280;29815;48.184;11.268;2023-05-19T07:13:43;95907.56;;;12.61;100.00
43878;BME280;29815;48.184;11.268;2023-05-19T07:16:17;95894.31;;;12.75;100.00
43878;BME280;29815;48.184;11.268;2023-05-19T07:18:46;95904.78;;;12.86;100.00
43878;BME280;29815;48.184;11.268;2023-05-19T07:21:16;95904.78;;;12.92;100.00
